sensor_id;sensor_type;location;lat;lon;timestamp;temperature;humidity
42099;DHT22;27758;55.900;8.516;2023-05-02T00:00:36;6.10;99.90
42099;DHT22;27758;55.900;8.516;2023-05-02T00:03:03;6.00;99.90
42099;DHT22;27758;55.900;8.516;2023-05-02T00:05:30;6.00;99.90
42099;DHT22;27758;55.900;8.516;2023-05-02T00:07:56;6.00;99.90
42099;DHT22;27758;55.900;8.516;2023-05-02T00:10:21;6.00;99.90
42099;DHT22;27758;55.900;8.516;2023-05-02T00:12:50;6.00;99.90
42099;DHT22;27758;55.900;8.516;2023-05-02T00:15:15;6.00;99.90
42099;DHT22;27758;55.900;8.516;2023-05-02T00:17:42;6.00;99.90
42099;DHT22;27758;55.900;8.516;2023-05-02T00:20:11;6.00;99.90
42099;DHT22;27758;55.900;8.516;2023-05-02T00:22:37;5.90;99.90
42099;DHT22;27758;55.900;8.516;2023-05-02T00:25:04;5.90;99.90
42099;DHT22;27758;55.900;8.516;2023-05-02T00:27:29;5.90;99.90
42099;DHT22;27758;55.900;8.516;2023-05-02T00:29:56;6.00;99.90
42099;DHT22;27758;55.900;8.516;2023-05-02T00:32:24;5.90;99.90
42099;DHT22;27758;55.900;8.516;2023-05-02T00:34:52;6.00;99.90
42099;DHT22;27758;55.900;8.516;2023-05-02T00:37:18;5.90;99.90
42099;DHT22;27758;55.900;8.516;2023-05-02T00:39:43;5.90;99.90
42099;DHT22;27758;55.900;8.516;2023-05-02T00:42:12;5.90;99.90
42099;DHT22;27758;55.900;8.516;2023-05-02T00:44:38;5.90;99.90
42099;DHT22;27758;55.900;8.516;2023-05-02T00:47:04;5.90;99.90
42099;DHT22;27758;55.900;8.516;2023-05-02T00:49:30;5.90;99.90
42099;DHT22;27758;55.900;8.516;2023-05-02T00:51:57;5.90;99.90
42099;DHT22;27758;55.900;8.516;2023-05-02T00:54:23;6.00;99.90
42099;DHT22;27758;55.900;8.516;2023-05-02T00:56:48;5.90;99.90
42099;DHT22;27758;55.900;8.516;2023-05-02T00:59:14;5.90;99.90
42099;DHT22;27758;55.900;8.516;2023-05-02T01:05:08;6.00;99.90
42099;DHT22;27758;55.900;8.516;2023-05-02T01:10:48;6.10;99.90
42099;DHT22;27758;55.900;8.516;2023-05-02T01:13:21;6.10;99.90
42099;DHT22;27758;55.900;8.516;2023-05-02T01:15:51;6.00;99.90
42099;DHT22;27758;55.900;8.516;2023-05-02T01:18:21;6.00;99.90
42099;DHT22;27758;55.900;8.516;2023-05-02T01:20:52;6.00;99.90
42099;DHT22;27758;55.900;8.516;2023-05-02T01:26:42;6.10;99.90
42099;DHT22;27758;55.900;8.516;2023-05-02T01:29:10;6.10;99.90
42099;DHT22;27758;55.900;8.516;2023-05-02T01:31:40;6.20;99.90
42099;DHT22;27758;55.900;8.516;2023-05-02T01:34:10;6.20;99.90
42099;DHT22;27758;55.900;8.516;2023-05-02T01:36:40;6.20;99.90
42099;DHT22;27758;55.900;8.516;2023-05-02T01:39:09;6.20;99.90
42099;DHT22;27758;55.900;8.516;2023-05-02T01:41:35;6.20;99.90
42099;DHT22;27758;55.900;8.516;2023-05-02T01:44:02;6.20;99.90
42099;DHT22;27758;55.900;8.516;2023-05-02T01:46:37;6.20;99.90
42099;DHT22;27758;55.900;8.516;2023-05-02T01:49:06;6.20;99.90
42099;DHT22;27758;55.900;8.516;2023-05-02T01:51:35;6.30;99.90
42099;DHT22;27758;55.900;8.516;2023-05-02T01:54:04;6.30;99.90
42099;DHT22;27758;55.900;8.516;2023-05-02T01:56:35;6.20;99.90
42099;DHT22;27758;55.900;8.516;2023-05-02T01:59:05;6.20;99.90
42099;DHT22;27758;55.900;8.516;2023-05-02T02:01:34;6.20;99.90
42099;DHT22;27758;55.900;8.516;2023-05-02T02:04:01;6.10;99.90
42099;DHT22;27758;55.900;8.516;2023-05-02T02:06:27;6.10;99.90
42099;DHT22;27758;55.900;8.516;2023-05-02T02:08:56;6.10;99.90
42099;DHT22;27758;55.900;8.516;2023-05-02T02:11:26;6.10;99.90
42099;DHT22;27758;55.900;8.516;2023-05-02T02:14:08;6.10;99.90
42099;DHT22;27758;55.900;8.516;2023-05-02T02:16:37;6.10;99.90
42099;DHT22;27758;55.900;8.516;2023-05-02T02:19:09;6.10;99.90
42099;DHT22;27758;55.900;8.516;2023-05-02T02:21:35;6.10;99.90
42099;DHT22;27758;55.900;8.516;2023-05-02T02:24:04;6.20;99.90
42099;DHT22;27758;55.900;8.516;2023-05-02T02:26:31;6.20;99.90
42099;DHT22;27758;55.900;8.516;2023-05-02T02:28:56;6.20;99.90
42099;DHT22;27758;55.900;8.516;2023-05-02T02:31:22;6.20;99.90
42099;DHT22;27758;55.900;8.516;2023-05-02T02:33:50;6.10;99.90
42099;DHT22;27758;55.900;8.516;2023-05-02T02:36:38;6.10;99.90
42099;DHT22;27758;55.900;8.516;2023-05-02T02:44:32;5.90;99.90
42099;DHT22;27758;55.900;8.516;2023-05-02T02:47:07;5.90;99.90
42099;DHT22;27758;55.900;8.516;2023-05-02T02:49:46;5.90;99.90
42099;DHT22;27758;55.900;8.516;2023-05-02T02:52:27;5.80;99.90
42099;DHT22;27758;55.900;8.516;2023-05-02T02:55:05;5.80;99.90
42099;DHT22;27758;55.900;8.516;2023-05-02T02:57:38;5.80;99.90
42099;DHT22;27758;55.900;8.516;2023-05-02T03:00:10;5.80;99.90
42099;DHT22;27758;55.900;8.516;2023-05-02T03:02:38;5.80;99.90
42099;DHT22;27758;55.900;8.516;2023-05-02T03:05:07;5.80;99.90
42099;DHT22;27758;55.900;8.516;2023-05-02T03:07:33;5.80;99.90
42099;DHT22;27758;55.900;8.516;2023-05-02T03:10:02;5.80;99.90
42099;DHT22;27758;55.900;8.516;2023-05-02T03:12:29;5.80;99.90
42099;DHT22;27758;55.900;8.516;2023-05-02T03:15:13;5.70;99.90
42099;DHT22;27758;55.900;8.516;2023-05-02T03:17:40;5.70;99.90
42099;DHT22;27758;55.900;8.516;2023-05-02T03:20:06;5.80;99.90
42099;DHT22;27758;55.900;8.516;2023-05-02T03:22:32;5.80;99.90
42099;DHT22;27758;55.900;8.516;2023-05-02T03:24:58;5.80;99.90
42099;DHT22;27758;55.900;8.516;2023-05-02T03:27:23;5.80;99.90
42099;DHT22;27758;55.900;8.516;2023-05-02T03:29:49;5.80;99.90
42099;DHT22;27758;55.900;8.516;2023-05-02T03:32:15;5.90;99.90
42099;DHT22;27758;55.900;8.516;2023-05-02T03:34:41;5.90;99.90
42099;DHT22;27758;55.900;8.516;2023-05-02T03:37:06;5.90;99.90
42099;DHT22;27758;55.900;8.516;2023-05-02T03:39:32;5.90;99.90
42099;DHT22;27758;55.900;8.516;2023-05-02T03:41:58;5.80;99.90
42099;DHT22;27758;55.900;8.516;2023-05-02T03:44:23;5.70;99.90
42099;DHT22;27758;55.900;8.516;2023-05-02T03:46:49;5.80;99.90
42099;DHT22;27758;55.900;8.516;2023-05-02T03:49:15;5.70;99.90
42099;DHT22;27758;55.900;8.516;2023-05-02T03:51:41;5.70;99.90
42099;DHT22;27758;55.900;8.516;2023-05-02T03:54:06;5.70;99.90
42099;DHT22;27758;55.900;8.516;2023-05-02T03:56:34;5.70;99.90
42099;DHT22;27758;55.900;8.516;2023-05-02T03:58:59;5.80;99.90
42099;DHT22;27758;55.900;8.516;2023-05-02T04:01:25;5.80;99.90
42099;DHT22;27758;55.900;8.516;2023-05-02T04:03:51;5.80;99.90
42099;DHT22;27758;55.900;8.516;2023-05-02T04:06:17;5.90;99.90
42099;DHT22;27758;55.900;8.516;2023-05-02T04:08:43;6.00;99.90
42099;DHT22;27758;55.900;8.516;2023-05-02T04:11:08;6.00;99.90
42099;DHT22;27758;55.900;8.516;2023-05-02T04:13:34;6.10;99.90
42099;DHT22;27758;55.900;8.516;2023-05-02T04:16:00;6.10;99.90
42099;DHT22;27758;55.900;8.516;2023-05-02T04:18:25;6.10;99.90
42099;DHT22;27758;55.900;8.516;2023-05-02T04:20:51;6.10;99.90
42099;DHT22;27758;55.900;8.516;2023-05-02T04:23:17;6.00;99.90
42099;DHT22;27758;55.900;8.516;2023-05-02T04:25:53;6.10;99.90
42099;DHT22;27758;55.900;8.516;2023-05-02T04:28:20;6.10;99.90
42099;DHT22;27758;55.900;8.516;2023-05-02T04:30:50;6.10;99.90
42099;DHT22;27758;55.900;8.516;2023-05-02T04:33:16;6.20;99.90
42099;DHT22;27758;55.900;8.516;2023-05-02T04:35:43;6.20;99.90
42099;DHT22;27758;55.900;8.516;2023-05-02T04:38:08;6.30;99.90
42099;DHT22;27758;55.900;8.516;2023-05-02T04:40:34;6.30;99.90
42099;DHT22;27758;55.900;8.516;2023-05-02T04:43:00;6.40;99.90
42099;DHT22;27758;55.900;8.516;2023-05-02T04:45:26;6.40;99.90
42099;DHT22;27758;55.900;8.516;2023-05-02T04:47:52;6.50;99.90
42099;DHT22;27758;55.900;8.516;2023-05-02T04:50:17;6.40;99.90
42099;DHT22;27758;55.900;8.516;2023-05-02T04:52:46;6.50;99.90
42099;DHT22;27758;55.900;8.516;2023-05-02T04:55:13;6.60;99.90
42099;DHT22;27758;55.900;8.516;2023-05-02T04:57:38;6.60;99.90
42099;DHT22;27758;55.900;8.516;2023-05-02T05:00:07;6.70;99.90
42099;DHT22;27758;55.900;8.516;2023-05-02T05:02:33;6.80;99.90
42099;DHT22;27758;55.900;8.516;2023-05-02T05:05:00;6.80;99.90
42099;DHT22;27758;55.900;8.516;2023-05-02T05:07:26;6.80;99.90
42099;DHT22;27758;55.900;8.516;2023-05-02T05:09:52;6.90;99.90
42099;DHT22;27758;55.900;8.516;2023-05-02T05:12:18;7.00;99.90
42099;DHT22;27758;55.900;8.516;2023-05-02T05:14:44;7.00;99.90
42099;DHT22;27758;55.900;8.516;2023-05-02T05:17:10;7.10;99.90
42099;DHT22;27758;55.900;8.516;2023-05-02T05:19:36;7.20;99.90
42099;DHT22;27758;55.900;8.516;2023-05-02T05:22:01;7.10;99.90
42099;DHT22;27758;55.900;8.516;2023-05-02T05:24:27;7.20;99.90
42099;DHT22;27758;55.900;8.516;2023-05-02T05:26:53;7.30;99.90
42099;DHT22;27758;55.900;8.516;2023-05-02T05:29:18;7.40;99.90
42099;DHT22;27758;55.900;8.516;2023-05-02T05:31:44;7.50;99.90
42099;DHT22;27758;55.900;8.516;2023-05-02T05:34:10;7.70;99.90
42099;DHT22;27758;55.900;8.516;2023-05-02T05:36:35;7.70;99.90
42099;DHT22;27758;55.900;8.516;2023-05-02T05:39:02;7.70;99.90
42099;DHT22;27758;55.900;8.516;2023-05-02T05:41:28;7.70;99.90
42099;DHT22;27758;55.900;8.516;2023-05-02T05:43:55;7.70;99.90
42099;DHT22;27758;55.900;8.516;2023-05-02T05:46:20;7.80;99.90
42099;DHT22;27758;55.900;8.516;2023-05-02T05:48:46;7.80;99.90
42099;DHT22;27758;55.900;8.516;2023-05-02T05:51:12;7.80;99.90
42099;DHT22;27758;55.900;8.516;2023-05-02T05:53:37;7.70;99.90
42099;DHT22;27758;55.900;8.516;2023-05-02T05:56:11;7.70;99.90
42099;DHT22;27758;55.900;8.516;2023-05-02T05:58:37;7.60;99.90
42099;DHT22;27758;55.900;8.516;2023-05-02T06:01:03;7.60;99.90
42099;DHT22;27758;55.900;8.516;2023-05-02T06:03:32;7.60;99.90
42099;DHT22;27758;55.900;8.516;2023-05-02T06:05:57;7.60;99.90
42099;DHT22;27758;55.900;8.516;2023-05-02T06:08:24;7.60;99.90
42099;DHT22;27758;55.900;8.516;2023-05-02T06:10:49;7.50;99.90
42099;DHT22;27758;55.900;8.516;2023-05-02T06:13:15;7.50;99.90
42099;DHT22;27758;55.900;8.516;2023-05-02T06:15:41;7.60;99.90
42099;DHT22;27758;55.900;8.516;2023-05-02T06:18:06;7.70;99.90
42099;DHT22;27758;55.900;8.516;2023-05-02T06:20:35;7.70;99.90
42099;DHT22;27758;55.900;8.516;2023-05-02T06:23:01;7.60;99.90
42099;DHT22;27758;55.900;8.516;2023-05-02T06:25:26;7.60;99.90
42099;DHT22;27758;55.900;8.516;2023-05-02T06:27:52;7.50;99.90
42099;DHT22;27758;55.900;8.516;2023-05-02T06:30:18;7.50;99.90
42099;DHT22;27758;55.900;8.516;2023-05-02T06:32:43;7.40;99.90
42099;DHT22;27758;55.900;8.516;2023-05-02T06:35:09;7.40;99.90
42099;DHT22;27758;55.900;8.516;2023-05-02T06:37:36;7.40;99.90
42099;DHT22;27758;55.900;8.516;2023-05-02T06:40:02;7.40;99.90
42099;DHT22;27758;55.900;8.516;2023-05-02T06:42:28;7.40;99.90
42099;DHT22;27758;55.900;8.516;2023-05-02T06:44:54;7.40;99.90
42099;DHT22;27758;55.900;8.516;2023-05-02T06:47:20;7.50;99.90
42099;DHT22;27758;55.900;8.516;2023-05-02T06:49:46;7.60;99.90
42099;DHT22;27758;55.900;8.516;2023-05-02T06:52:12;7.70;99.90
42099;DHT22;27758;55.900;8.516;2023-05-02T06:54:37;7.80;99.90
42099;DHT22;27758;55.900;8.516;2023-05-02T06:57:04;8.10;99.90
42099;DHT22;27758;55.900;8.516;2023-05-02T06:59:30;8.30;99.90
42099;DHT22;27758;55.900;8.516;2023-05-02T07:01:55;8.30;99.90
42099;DHT22;27758;55.900;8.516;2023-05-02T07:04:21;8.40;99.90
42099;DHT22;27758;55.900;8.516;2023-05-02T07:06:48;8.40;99.90
42099;DHT22;27758;55.900;8.516;2023-05-02T07:09:14;8.50;99.90
42099;DHT22;27758;55.900;8.516;2023-05-02T07:11:39;8.50;99.90
42099;DHT22;27758;55.900;8.516;2023-05-02T07:14:05;8.30;99.90
42099;DHT22;27758;55.900;8.516;2023-05-02T07:16:31;8.40;99.90
42099;DHT22;27758;55.900;8.516;2023-05-02T07:18:57;8.40;99.90
42099;DHT22;27758;55.900;8.516;2023-05-02T07:21:23;8.50;99.90
42099;DHT22;27758;55.900;8.516;2023-05-02T07:23:49;8.70;99.90
42099;DHT22;27758;55.900;8.516;2023-05-02T07:26:15;9.00;99.90
42099;DHT22;27758;55.900;8.516;2023-05-02T07:28:43;9.20;99.90
42099;DHT22;27758;55.900;8.516;2023-05-02T07:31:09;9.60;99.90
42099;DHT22;27758;55.900;8.516;2023-05-02T07:33:34;10.20;99.90
42099;DHT22;27758;55.900;8.516;2023-05-02T07:36:01;10.90;99.90
42099;DHT22;27758;55.900;8.516;2023-05-02T07:38:27;11.30;99.90
42099;DHT22;27758;55.900;8.516;2023-05-02T07:40:53;11.40;99.90
42099;DHT22;27758;55.900;8.516;2023-05-02T07:43:21;11.40;99.90
42099;DHT22;27758;55.900;8.516;2023-05-02T07:45:47;11.40;99.90
42099;DHT22;27758;55.900;8.516;2023-05-02T07:48:13;11.30;99.90
42099;DHT22;27758;55.900;8.516;2023-05-02T07:50:44;11.30;99.90
42099;DHT22;27758;55.900;8.516;2023-05-02T07:53:10;11.70;99.90
42099;DHT22;27758;55.900;8.516;2023-05-02T07:55:36;12.20;99.90
42099;DHT22;27758;55.900;8.516;2023-05-02T07:58:01;12.30;99.90
42099;DHT22;27758;55.900;8.516;2023-05-02T08:00:28;11.90;99.90
42099;DHT22;27758;55.900;8.516;2023-05-02T08:02:54;11.80;99.90
42099;DHT22;27758;55.900;8.516;2023-05-02T08:05:20;11.70;99.90
42099;DHT22;27758;55.900;8.516;2023-05-02T08:07:46;11.60;99.90
42099;DHT22;27758;55.900;8.516;2023-05-02T08:10:12;11.50;99.90
42099;DHT22;27758;55.900;8.516;2023-05-02T08:12:38;11.40;99.90
42099;DHT22;27758;55.900;8.516;2023-05-02T08:15:06;11.40;99.90
42099;DHT22;27758;55.900;8.516;2023-05-02T08:17:35;11.90;99.90
42099;DHT22;27758;55.900;8.516;2023-05-02T08:20:02;12.40;99.90
42099;DHT22;27758;55.900;8.516;2023-05-02T08:22:28;12.40;99.90
42099;DHT22;27758;55.900;8.516;2023-05-02T08:24:53;12.30;99.90
42099;DHT22;27758;55.900;8.516;2023-05-02T08:27:19;12.40;99.90
42099;DHT22;27758;55.900;8.516;2023-05-02T08:29:45;12.50;99.90
42099;DHT22;27758;55.900;8.516;2023-05-02T08:32:10;12.50;99.90
42099;DHT22;27758;55.900;8.516;2023-05-02T08:34:36;12.70;99.90
42099;DHT22;27758;55.900;8.516;2023-05-02T08:37:07;12.30;99.90
42099;DHT22;27758;55.900;8.516;2023-05-02T08:39:33;12.10;99.90
42099;DHT22;27758;55.900;8.516;2023-05-02T08:42:08;12.20;99.90
42099;DHT22;27758;55.900;8.516;2023-05-02T08:44:33;12.00;99.90
42099;DHT22;27758;55.900;8.516;2023-05-02T08:46:59;12.10;99.90
42099;DHT22;27758;55.900;8.516;2023-05-02T08:49:26;12.20;99.90
42099;DHT22;27758;55.900;8.516;2023-05-02T08:51:54;12.10;99.90
42099;DHT22;27758;55.900;8.516;2023-05-02T08:54:22;12.30;99.90
42099;DHT22;27758;55.900;8.516;2023-05-02T08:56:50;12.50;99.90
42099;DHT22;27758;55.900;8.516;2023-05-02T08:59:16;12.80;99.90
42099;DHT22;27758;55.900;8.516;2023-05-02T09:01:43;13.20;99.90
42099;DHT22;27758;55.900;8.516;2023-05-02T09:04:12;13.80;99.90
42099;DHT22;27758;55.900;8.516;2023-05-02T09:06:39;14.10;99.90
42099;DHT22;27758;55.900;8.516;2023-05-02T09:09:05;13.80;99.90
42099;DHT22;27758;55.900;8.516;2023-05-02T09:11:31;13.50;99.90
42099;DHT22;27758;55.900;8.516;2023-05-02T09:13:57;13.70;99.90
42099;DHT22;27758;55.900;8.516;2023-05-02T09:16:28;13.90;99.90
42099;DHT22;27758;55.900;8.516;2023-05-02T09:18:56;14.20;99.90
42099;DHT22;27758;55.900;8.516;2023-05-02T09:21:23;14.50;99.90
42099;DHT22;27758;55.900;8.516;2023-05-02T09:23:51;14.80;99.90
42099;DHT22;27758;55.900;8.516;2023-05-02T09:26:28;15.30;99.90
42099;DHT22;27758;55.900;8.516;2023-05-02T09:28:59;15.80;99.90
42099;DHT22;27758;55.900;8.516;2023-05-02T09:31:30;16.00;99.90
42099;DHT22;27758;55.900;8.516;2023-05-02T09:34:17;15.20;98.80
42099;DHT22;27758;55.900;8.516;2023-05-02T09:36:45;14.10;99.90
42099;DHT22;27758;55.900;8.516;2023-05-02T09:39:21;14.00;99.90
42099;DHT22;27758;55.900;8.516;2023-05-02T09:41:48;14.20;99.90
42099;DHT22;27758;55.900;8.516;2023-05-02T09:44:15;14.20;99.90
42099;DHT22;27758;55.900;8.516;2023-05-02T09:46:48;14.20;99.90
42099;DHT22;27758;55.900;8.516;2023-05-02T09:49:15;13.80;99.90
42099;DHT22;27758;55.900;8.516;2023-05-02T09:51:44;13.70;99.90
42099;DHT22;27758;55.900;8.516;2023-05-02T09:56:56;13.70;99.90
42099;DHT22;27758;55.900;8.516;2023-05-02T09:59:22;14.00;99.90
42099;DHT22;27758;55.900;8.516;2023-05-02T10:01:58;14.00;99.90
42099;DHT22;27758;55.900;8.516;2023-05-02T10:04:25;13.90;99.90
42099;DHT22;27758;55.900;8.516;2023-05-02T10:06:54;13.60;99.90
42099;DHT22;27758;55.900;8.516;2023-05-02T10:09:20;13.50;99.90
42099;DHT22;27758;55.900;8.516;2023-05-02T10:11:53;13.80;99.90
42099;DHT22;27758;55.900;8.516;2023-05-02T10:14:20;13.70;99.90
42099;DHT22;27758;55.900;8.516;2023-05-02T10:17:00;13.40;99.90
42099;DHT22;27758;55.900;8.516;2023-05-02T10:19:37;14.00;99.90
42099;DHT22;27758;55.900;8.516;2023-05-02T10:22:06;14.30;99.90
42099;DHT22;27758;55.900;8.516;2023-05-02T10:24:33;14.20;99.90
42099;DHT22;27758;55.900;8.516;2023-05-02T10:26:59;14.30;99.90
42099;DHT22;27758;55.900;8.516;2023-05-02T10:29:30;14.50;99.90
42099;DHT22;27758;55.900;8.516;2023-05-02T10:31:56;14.70;99.90
42099;DHT22;27758;55.900;8.516;2023-05-02T10:34:23;14.30;99.80
42099;DHT22;27758;55.900;8.516;2023-05-02T10:36:48;13.90;99.90
42099;DHT22;27758;55.900;8.516;2023-05-02T10:39:14;14.00;99.90
42099;DHT22;27758;55.900;8.516;2023-05-02T10:41:41;13.90;99.90
42099;DHT22;27758;55.900;8.516;2023-05-02T10:44:07;13.80;99.90
42099;DHT22;27758;55.900;8.516;2023-05-02T10:46:34;13.70;99.90
42099;DHT22;27758;55.900;8.516;2023-05-02T10:49:04;13.90;99.90
42099;DHT22;27758;55.900;8.516;2023-05-02T10:51:32;14.40;99.90
42099;DHT22;27758;55.900;8.516;2023-05-02T10:59:30;14.20;99.90
42099;DHT22;27758;55.900;8.516;2023-05-02T11:01:56;14.20;99.90
42099;DHT22;27758;55.900;8.516;2023-05-02T11:09:39;14.50;99.90
42099;DHT22;27758;55.900;8.516;2023-05-02T11:12:09;14.70;99.90
42099;DHT22;27758;55.900;8.516;2023-05-02T11:24:49;14.10;99.80
42099;DHT22;27758;55.900;8.516;2023-05-02T11:32:20;13.60;99.90
42099;DHT22;27758;55.900;8.516;2023-05-02T11:34:47;14.30;99.90
42099;DHT22;27758;55.900;8.516;2023-05-02T11:37:18;15.00;99.90
42099;DHT22;27758;55.900;8.516;2023-05-02T11:39:44;15.10;99.90
42099;DHT22;27758;55.900;8.516;2023-05-02T11:42:30;14.90;99.50
42099;DHT22;27758;55.900;8.516;2023-05-02T11:44:57;14.20;99.90
42099;DHT22;27758;55.900;8.516;2023-05-02T11:47:23;14.50;99.90
42099;DHT22;27758;55.900;8.516;2023-05-02T11:49:49;15.00;99.90
42099;DHT22;27758;55.900;8.516;2023-05-02T11:52:15;15.40;99.90
42099;DHT22;27758;55.900;8.516;2023-05-02T11:54:41;15.30;99.10
42099;DHT22;27758;55.900;8.516;2023-05-02T11:57:07;15.10;99.70
42099;DHT22;27758;55.900;8.516;2023-05-02T11:59:53;14.70;99.90
42099;DHT22;27758;55.900;8.516;2023-05-02T12:02:33;14.70;99.90
42099;DHT22;27758;55.900;8.516;2023-05-02T12:05:01;14.70;99.90
42099;DHT22;27758;55.900;8.516;2023-05-02T12:07:37;14.70;99.90
42099;DHT22;27758;55.900;8.516;2023-05-02T12:10:04;15.00;99.90
42099;DHT22;27758;55.900;8.516;2023-05-02T12:12:31;15.10;99.90
42099;DHT22;27758;55.900;8.516;2023-05-02T12:14:58;15.10;99.90
42099;DHT22;27758;55.900;8.516;2023-05-02T12:17:28;15.30;99.90
42099;DHT22;27758;55.900;8.516;2023-05-02T12:19:54;15.30;99.90
42099;DHT22;27758;55.900;8.516;2023-05-02T12:22:22;15.40;99.90
42099;DHT22;27758;55.900;8.516;2023-05-02T12:24:52;15.80;99.90
42099;DHT22;27758;55.900;8.516;2023-05-02T12:27:18;15.60;99.90
42099;DHT22;27758;55.900;8.516;2023-05-02T12:29:46;15.80;99.90
42099;DHT22;27758;55.900;8.516;2023-05-02T12:32:13;15.80;99.90
42099;DHT22;27758;55.900;8.516;2023-05-02T12:34:39;16.00;99.90
42099;DHT22;27758;55.900;8.516;2023-05-02T12:37:06;16.10;99.90
42099;DHT22;27758;55.900;8.516;2023-05-02T12:39:42;16.20;99.90
42099;DHT22;27758;55.900;8.516;2023-05-02T12:42:12;16.20;99.90
42099;DHT22;27758;55.900;8.516;2023-05-02T12:44:40;16.30;99.90
42099;DHT22;27758;55.900;8.516;2023-05-02T12:47:09;15.90;99.90
42099;DHT22;27758;55.900;8.516;2023-05-02T12:52:25;15.60;99.90
42099;DHT22;27758;55.900;8.516;2023-05-02T12:55:19;15.30;99.90
42099;DHT22;27758;55.900;8.516;2023-05-02T12:57:45;15.20;99.90
42099;DHT22;27758;55.900;8.516;2023-05-02T13:00:12;15.20;99.90
42099;DHT22;27758;55.900;8.516;2023-05-02T13:02:38;15.20;99.90
42099;DHT22;27758;55.900;8.516;2023-05-02T13:05:17;15.20;99.90
42099;DHT22;27758;55.900;8.516;2023-05-02T13:07:43;15.50;99.90
42099;DHT22;27758;55.900;8.516;2023-05-02T13:10:09;15.40;99.20
42099;DHT22;27758;55.900;8.516;2023-05-02T13:12:35;15.50;99.50
42099;DHT22;27758;55.900;8.516;2023-05-02T13:15:06;15.40;99.90
42099;DHT22;27758;55.900;8.516;2023-05-02T13:17:33;15.30;98.40
42099;DHT22;27758;55.900;8.516;2023-05-02T13:19:59;15.20;99.20
42099;DHT22;27758;55.900;8.516;2023-05-02T13:22:26;15.40;99.30
42099;DHT22;27758;55.900;8.516;2023-05-02T13:24:52;15.60;98.50
42099;DHT22;27758;55.900;8.516;2023-05-02T13:27:18;15.50;98.90
42099;DHT22;27758;55.900;8.516;2023-05-02T13:29:44;15.50;98.50
42099;DHT22;27758;55.900;8.516;2023-05-02T13:32:10;15.40;98.40
42099;DHT22;27758;55.900;8.516;2023-05-02T13:34:36;15.10;98.30
42099;DHT22;27758;55.900;8.516;2023-05-02T13:37:02;15.00;99.50
42099;DHT22;27758;55.900;8.516;2023-05-02T13:39:28;14.80;98.90
42099;DHT22;27758;55.900;8.516;2023-05-02T13:41:53;14.50;99.80
42099;DHT22;27758;55.900;8.516;2023-05-02T13:44:22;14.00;99.90
42099;DHT22;27758;55.900;8.516;2023-05-02T13:46:47;14.00;99.90
42099;DHT22;27758;55.900;8.516;2023-05-02T13:49:13;14.00;99.90
42099;DHT22;27758;55.900;8.516;2023-05-02T13:51:40;14.00;99.90
42099;DHT22;27758;55.900;8.516;2023-05-02T13:54:06;13.90;99.90
42099;DHT22;27758;55.900;8.516;2023-05-02T13:56:31;14.20;99.90
42099;DHT22;27758;55.900;8.516;2023-05-02T13:58:57;14.40;99.90
42099;DHT22;27758;55.900;8.516;2023-05-02T14:01:23;14.50;99.90
42099;DHT22;27758;55.900;8.516;2023-05-02T14:03:51;14.40;99.90
42099;DHT22;27758;55.900;8.516;2023-05-02T14:06:17;14.40;99.90
42099;DHT22;27758;55.900;8.516;2023-05-02T14:08:42;14.60;99.90
42099;DHT22;27758;55.900;8.516;2023-05-02T14:11:09;14.70;99.90
42099;DHT22;27758;55.900;8.516;2023-05-02T14:13:36;14.70;99.90
42099;DHT22;27758;55.900;8.516;2023-05-02T14:16:02;14.60;99.90
42099;DHT22;27758;55.900;8.516;2023-05-02T14:18:27;14.20;99.90
42099;DHT22;27758;55.900;8.516;2023-05-02T14:20:59;14.20;99.90
42099;DHT22;27758;55.900;8.516;2023-05-02T14:23:28;14.40;99.90
42099;DHT22;27758;55.900;8.516;2023-05-02T14:25:54;14.60;99.90
42099;DHT22;27758;55.900;8.516;2023-05-02T14:28:20;14.80;99.90
42099;DHT22;27758;55.900;8.516;2023-05-02T14:30:49;14.70;99.90
42099;DHT22;27758;55.900;8.516;2023-05-02T14:33:15;14.30;99.90
42099;DHT22;27758;55.900;8.516;2023-05-02T14:35:41;14.20;99.90
42099;DHT22;27758;55.900;8.516;2023-05-02T14:38:07;14.20;99.90
42099;DHT22;27758;55.900;8.516;2023-05-02T14:40:33;14.10;99.90
42099;DHT22;27758;55.900;8.516;2023-05-02T14:42:59;13.90;99.90
42099;DHT22;27758;55.900;8.516;2023-05-02T14:45:25;13.70;99.90
42099;DHT22;27758;55.900;8.516;2023-05-02T14:47:54;13.50;99.90
42099;DHT22;27758;55.900;8.516;2023-05-02T14:50:20;13.50;99.90
42099;DHT22;27758;55.900;8.516;2023-05-02T14:52:45;13.50;99.90
42099;DHT22;27758;55.900;8.516;2023-05-02T14:55:11;13.60;99.90
42099;DHT22;27758;55.900;8.516;2023-05-02T14:57:37;13.50;99.90
42099;DHT22;27758;55.900;8.516;2023-05-02T15:00:04;13.50;99.90
42099;DHT22;27758;55.900;8.516;2023-05-02T15:02:33;13.40;99.90
42099;DHT22;27758;55.900;8.516;2023-05-02T15:05:00;13.20;99.90
42099;DHT22;27758;55.900;8.516;2023-05-02T15:07:26;13.20;99.90
42099;DHT22;27758;55.900;8.516;2023-05-02T15:09:53;12.90;99.90
42099;DHT22;27758;55.900;8.516;2023-05-02T15:12:18;12.70;99.90
42099;DHT22;27758;55.900;8.516;2023-05-02T15:14:44;12.70;99.90
42099;DHT22;27758;55.900;8.516;2023-05-02T15:17:10;12.60;99.90
42099;DHT22;27758;55.900;8.516;2023-05-02T15:19:36;12.70;99.90
42099;DHT22;27758;55.900;8.516;2023-05-02T15:22:01;12.70;99.90
42099;DHT22;27758;55.900;8.516;2023-05-02T15:24:27;12.50;99.90
42099;DHT22;27758;55.900;8.516;2023-05-02T15:26:53;12.60;99.90
42099;DHT22;27758;55.900;8.516;2023-05-02T15:29:18;13.00;99.90
42099;DHT22;27758;55.900;8.516;2023-05-02T15:31:44;13.40;99.90
42099;DHT22;27758;55.900;8.516;2023-05-02T15:34:10;13.40;99.90
42099;DHT22;27758;55.900;8.516;2023-05-02T15:36:36;13.20;99.90
42099;DHT22;27758;55.900;8.516;2023-05-02T15:39:05;12.80;99.90
42099;DHT22;27758;55.900;8.516;2023-05-02T15:41:34;12.40;99.90
42099;DHT22;27758;55.900;8.516;2023-05-02T15:44:00;12.30;99.90
42099;DHT22;27758;55.900;8.516;2023-05-02T15:46:25;12.40;99.90
42099;DHT22;27758;55.900;8.516;2023-05-02T15:48:51;12.60;99.90
42099;DHT22;27758;55.900;8.516;2023-05-02T15:51:17;12.90;99.90
42099;DHT22;27758;55.900;8.516;2023-05-02T15:53:43;13.00;99.90
42099;DHT22;27758;55.900;8.516;2023-05-02T15:56:10;13.10;99.90
42099;DHT22;27758;55.900;8.516;2023-05-02T15:58:36;13.30;99.90
42099;DHT22;27758;55.900;8.516;2023-05-02T16:01:03;13.20;99.90
42099;DHT22;27758;55.900;8.516;2023-05-02T16:03:29;12.80;99.90
42099;DHT22;27758;55.900;8.516;2023-05-02T16:05:56;12.50;99.90
42099;DHT22;27758;55.900;8.516;2023-05-02T16:08:26;12.30;99.90
42099;DHT22;27758;55.900;8.516;2023-05-02T16:10:53;12.10;99.90
42099;DHT22;27758;55.900;8.516;2023-05-02T16:13:19;12.10;99.90
42099;DHT22;27758;55.900;8.516;2023-05-02T16:15:48;12.00;99.90
42099;DHT22;27758;55.900;8.516;2023-05-02T16:18:14;11.80;99.90
42099;DHT22;27758;55.900;8.516;2023-05-02T16:20:40;12.00;99.90
42099;DHT22;27758;55.900;8.516;2023-05-02T16:23:06;12.20;99.90
42099;DHT22;27758;55.900;8.516;2023-05-02T16:25:32;12.40;99.90